createdAt,value
2018-07-22T00:00:22.139Z,61.58
2018-07-22T00:01:22.129Z,61.48
2018-07-22T00:02:22.135Z,61.68
2018-07-22T00:03:22.127Z,61.48
2018-07-22T00:04:22.101Z,61.29
2018-07-22T00:05:22.123Z,61.48
2018-07-22T00:06:22.104Z,63.02
2018-07-22T00:07:22.092Z,64.56
2018-07-22T00:08:22.083Z,64.25
2018-07-22T00:09:22.068Z,63.76
2018-07-22T00:10:22.077Z,63.38
2018-07-22T00:11:22.070Z,63.18
2018-07-22T00:12:22.055Z,62.80
2018-07-22T00:13:22.054Z,62.41
2018-07-22T00:14:22.044Z,62.73
2018-07-22T00:15:22.052Z,62.51
2018-07-22T00:16:22.033Z,62.32
2018-07-22T00:17:22.011Z,61.65
2018-07-22T00:18:22.009Z,61.96
2018-07-22T00:19:22.010Z,62.41
2018-07-22T00:20:22.019Z,62.41
2018-07-22T00:21:22.000Z,62.03
2018-07-22T00:22:22.003Z,62.51
2018-07-22T00:23:21.991Z,62.41
2018-07-22T00:24:21.974Z,62.70
2018-07-22T00:25:22.007Z,62.12
2018-07-22T00:26:21.998Z,62.03
2018-07-22T00:27:21.947Z,61.74
2018-07-22T00:28:21.948Z,63.38
2018-07-22T00:29:21.946Z,62.51
2018-07-22T00:30:21.976Z,62.80
2018-07-22T00:31:21.982Z,62.99
2018-07-22T00:32:21.920Z,62.70
2018-07-22T00:33:21.920Z,62.90
2018-07-22T00:34:21.909Z,62.80
2018-07-22T00:35:21.889Z,62.90
2018-07-22T00:36:21.880Z,62.51
2018-07-22T00:37:21.895Z,62.54
2018-07-22T00:38:21.879Z,62.45
2018-07-22T00:39:21.874Z,62.45
2018-07-22T00:40:21.872Z,62.60
2018-07-22T00:41:22.129Z,62.70
2018-07-22T00:42:21.850Z,62.51
2018-07-22T00:43:21.844Z,62.51
2018-07-22T00:44:21.828Z,61.83
2018-07-22T00:45:21.828Z,62.06
2018-07-22T00:46:21.815Z,62.06
2018-07-22T00:47:21.826Z,62.15
2018-07-22T00:48:21.814Z,61.87
2018-07-22T00:49:21.809Z,62.06
2018-07-22T00:50:21.792Z,61.77
2018-07-22T00:51:21.793Z,62.06
2018-07-22T00:52:21.864Z,62.25
2018-07-22T00:53:21.774Z,62.03
2018-07-22T00:54:21.773Z,62.22
2018-07-22T00:55:21.756Z,62.12
2018-07-22T00:56:21.741Z,62.22
2018-07-22T00:57:21.748Z,62.25
2018-07-22T00:58:21.771Z,61.93
2018-07-22T00:59:21.734Z,62.03
2018-07-22T01:00:21.777Z,62.22
2018-07-22T01:01:21.710Z,62.22
2018-07-22T01:02:21.714Z,61.83
2018-07-22T01:03:21.738Z,62.12
2018-07-22T01:04:21.715Z,62.12
2018-07-22T01:05:21.685Z,61.83
2018-07-22T01:06:21.685Z,61.74
2018-07-22T01:07:21.683Z,61.87
2018-07-22T01:08:21.718Z,62.03
2018-07-22T01:09:21.670Z,61.96
2018-07-22T01:10:21.655Z,62.03
2018-07-22T01:11:21.650Z,62.25
2018-07-22T01:12:21.646Z,61.93
2018-07-22T01:13:21.632Z,61.96
2018-07-22T01:14:21.700Z,62.03
2018-07-22T01:15:21.620Z,61.93
2018-07-22T01:16:21.617Z,61.93
2018-07-22T01:17:21.597Z,62.22
2018-07-22T01:18:21.597Z,62.15
2018-07-22T01:19:21.593Z,62.03
2018-07-22T01:20:21.609Z,62.06
2018-07-22T01:21:21.593Z,62.12
2018-07-22T01:22:21.572Z,61.93
2018-07-22T01:23:21.560Z,62.22
2018-07-22T01:24:21.595Z,62.15
2018-07-22T01:25:21.545Z,61.93
2018-07-22T01:26:21.549Z,61.96
2018-07-22T01:27:21.540Z,61.96
2018-07-22T01:28:21.540Z,62.25
2018-07-22T01:29:21.570Z,62.12
2018-07-22T01:30:21.529Z,61.74
2018-07-22T01:31:21.506Z,61.74
2018-07-22T01:32:21.510Z,61.68
2018-07-22T01:33:21.500Z,62.03
2018-07-22T01:34:21.510Z,62.03
2018-07-22T01:35:21.493Z,61.93
2018-07-22T01:36:21.475Z,62.25
2018-07-22T01:37:21.464Z,62.12
2018-07-22T01:38:21.460Z,62.12
2018-07-22T01:39:21.450Z,62.03
2018-07-22T01:40:21.445Z,61.93
2018-07-22T01:41:21.442Z,62.03
2018-07-22T01:42:21.469Z,62.70
2018-07-22T01:43:21.488Z,63.57
2018-07-22T01:44:21.422Z,63.18
2018-07-22T01:45:21.419Z,62.80
2018-07-22T01:46:21.415Z,63.18
2018-07-22T01:47:21.429Z,62.99
2018-07-22T01:48:21.431Z,63.38
2018-07-22T01:49:21.383Z,63.38
2018-07-22T01:50:21.379Z,63.09
2018-07-22T01:51:21.358Z,63.95
2018-07-22T01:52:21.416Z,65.01
2018-07-22T01:53:21.365Z,67.13
2018-07-22T01:54:21.348Z,66.91
2018-07-22T01:55:21.348Z,67.49
2018-07-22T01:56:21.340Z,67.49
2018-07-22T01:57:21.329Z,67.87
2018-07-22T01:58:21.388Z,67.68
2018-07-22T01:59:21.316Z,67.97
2018-07-22T02:00:21.317Z,66.91
2018-07-22T02:01:21.307Z,66.71
2018-07-22T02:02:21.304Z,66.71
2018-07-22T02:03:21.280Z,66.42
2018-07-22T02:04:21.309Z,65.85
2018-07-22T02:05:21.276Z,65.37
2018-07-22T02:06:21.270Z,65.56
2018-07-22T02:07:21.305Z,65.50
2018-07-22T02:08:21.254Z,64.92
2018-07-22T02:09:21.259Z,64.79
2018-07-22T02:10:21.249Z,64.89
2018-07-22T02:11:21.217Z,64.89
2018-07-22T02:12:21.221Z,64.69
2018-07-22T02:13:21.220Z,65.08
2018-07-22T02:14:21.242Z,64.79
2018-07-22T02:15:21.235Z,64.89
2018-07-22T02:16:21.201Z,65.27
2018-07-22T02:17:21.188Z,64.79
2018-07-22T02:18:21.177Z,64.98
2018-07-22T02:19:21.202Z,64.59
2018-07-22T02:20:21.161Z,64.31
2018-07-22T02:21:21.225Z,64.50
2018-07-22T02:22:21.169Z,65.46
2018-07-22T02:23:21.147Z,65.27
2018-07-22T02:24:21.150Z,64.79
2018-07-22T02:25:21.125Z,64.59
2018-07-22T02:26:21.117Z,64.98
2018-07-22T02:27:21.121Z,65.08
2018-07-22T02:28:21.103Z,65.08
2018-07-22T02:29:21.099Z,65.08
2018-07-22T02:30:21.088Z,64.89
2018-07-22T02:31:21.081Z,65.27
2018-07-22T02:32:21.112Z,65.75
2018-07-22T02:33:21.072Z,65.37
2018-07-22T02:34:21.071Z,65.08
2018-07-22T02:35:21.055Z,64.79
2018-07-22T02:36:21.053Z,65.17
2018-07-22T02:37:21.079Z,64.59
2018-07-22T02:38:21.051Z,64.59
2018-07-22T02:39:21.068Z,64.89
2018-07-22T02:40:21.022Z,64.59
2018-07-22T02:41:21.006Z,64.69
2018-07-22T02:42:21.012Z,64.89
2018-07-22T02:43:20.996Z,64.40
2018-07-22T02:44:21.142Z,64.02
2018-07-22T02:45:20.987Z,64.31
2018-07-22T02:46:20.980Z,64.40
2018-07-22T02:47:20.987Z,64.02
2018-07-22T02:48:20.991Z,64.89
2018-07-22T02:49:20.943Z,64.79
2018-07-22T02:50:20.977Z,64.21
2018-07-22T02:51:20.936Z,64.50
2018-07-22T02:52:20.931Z,64.31
2018-07-22T02:53:20.929Z,64.21
2018-07-22T02:54:20.917Z,64.31
2018-07-22T02:55:20.955Z,64.21
2018-07-22T02:56:20.916Z,64.21
2018-07-22T02:57:20.891Z,64.98
2018-07-22T02:58:20.887Z,64.79
2018-07-22T02:59:20.883Z,64.98
2018-07-22T03:00:20.880Z,64.31
2018-07-22T03:01:20.882Z,64.59
2018-07-22T03:02:20.849Z,64.21
2018-07-22T03:03:20.876Z,64.31
2018-07-22T03:04:20.831Z,64.12
2018-07-22T03:05:20.844Z,64.12
2018-07-22T03:06:20.856Z,64.21
2018-07-22T03:07:20.833Z,64.40
2018-07-22T03:08:20.817Z,64.12
2018-07-22T03:09:21.150Z,64.79
2018-07-22T03:10:20.794Z,64.98
2018-07-22T03:11:20.794Z,65.27
2018-07-22T03:12:20.792Z,65.66
2018-07-22T03:13:20.793Z,66.14
2018-07-22T03:14:20.777Z,66.71
2018-07-22T03:15:20.799Z,66.62
2018-07-22T03:16:20.749Z,67.00
2018-07-22T03:17:20.741Z,67.19
2018-07-22T03:18:20.739Z,67.87
2018-07-22T03:19:20.732Z,68.35
2018-07-22T03:20:20.795Z,67.49
2018-07-22T03:21:20.724Z,66.81
2018-07-22T03:22:20.728Z,67.29
2018-07-22T03:23:20.714Z,67.39
2018-07-22T03:24:20.701Z,67.10
2018-07-22T03:25:20.693Z,67.29
2018-07-22T03:26:20.694Z,66.71
2018-07-22T03:27:20.674Z,66.24
2018-07-22T03:28:20.665Z,66.14
2018-07-22T03:29:20.865Z,66.81
2018-07-22T03:30:20.685Z,66.81
2018-07-22T03:31:20.644Z,66.91
2018-07-22T03:32:20.639Z,69.12
2018-07-22T03:33:20.641Z,69.60
2018-07-22T03:34:20.624Z,69.79
2018-07-22T03:35:20.618Z,69.99
2018-07-22T03:36:20.609Z,70.66
2018-07-22T03:37:20.672Z,70.47
2018-07-22T03:38:20.596Z,70.86
2018-07-22T03:39:20.589Z,70.37
2018-07-22T03:40:20.581Z,71.04
2018-07-22T03:41:20.578Z,70.62
2018-07-22T03:42:20.565Z,70.53
2018-07-22T03:43:20.555Z,69.76
2018-07-22T03:44:20.557Z,68.64
2018-07-22T03:45:20.540Z,68.84
2018-07-22T03:46:20.548Z,69.02
2018-07-22T03:47:20.582Z,70.24
2018-07-22T03:48:20.521Z,69.70
2018-07-22T03:49:20.504Z,68.74
2018-07-22T03:50:20.494Z,68.06
2018-07-22T03:51:20.511Z,68.44
2018-07-22T03:52:20.533Z,68.06
2018-07-22T03:53:20.482Z,67.68
2018-07-22T03:54:20.469Z,67.39
2018-07-22T03:55:20.548Z,66.91
2018-07-22T03:56:20.468Z,66.81
2018-07-22T03:57:20.464Z,67.00
2018-07-22T03:58:20.448Z,68.16
2018-07-22T03:59:20.476Z,68.84
2018-07-22T04:00:21.155Z,69.89
2018-07-22T04:01:20.444Z,69.70
2018-07-22T04:02:20.417Z,69.89
2018-07-22T04:03:20.409Z,70.56
2018-07-22T04:04:20.403Z,69.70
2018-07-22T04:05:20.406Z,70.95
2018-07-22T04:06:20.423Z,70.72
2018-07-22T04:07:20.391Z,71.43
2018-07-22T04:08:20.364Z,70.72
2018-07-22T04:09:20.373Z,70.56
2018-07-22T04:10:20.359Z,70.28
2018-07-22T04:11:20.378Z,69.79
2018-07-22T04:12:20.348Z,70.66
2018-07-22T04:13:20.357Z,71.49
2018-07-22T04:14:20.335Z,71.30
2018-07-22T04:15:20.312Z,71.88
2018-07-22T04:16:20.346Z,72.36
2018-07-22T04:17:20.326Z,73.13
2018-07-22T04:18:20.690Z,72.65
2018-07-22T04:19:20.294Z,71.88
2018-07-22T04:20:20.290Z,72.84
2018-07-22T04:21:20.335Z,72.74
2018-07-22T04:22:20.313Z,73.03
2018-07-22T04:23:20.266Z,72.45
2018-07-22T04:24:20.257Z,73.03
2018-07-22T04:25:20.252Z,74.09
2018-07-22T04:26:20.240Z,73.90
2018-07-22T04:27:20.297Z,74.48
2018-07-22T04:28:20.235Z,73.90
2018-07-22T04:29:20.213Z,74.19
2018-07-22T04:30:20.263Z,74.19
2018-07-22T04:31:20.197Z,74.82
2018-07-22T04:32:20.182Z,74.19
2018-07-22T04:33:20.217Z,74.29
2018-07-22T04:34:20.190Z,74.09
2018-07-22T04:35:20.177Z,74.48
2018-07-22T04:36:20.158Z,74.96
2018-07-22T04:37:20.185Z,74.63
2018-07-22T04:38:20.150Z,75.11
2018-07-22T04:39:20.148Z,75.02
2018-07-22T04:40:20.127Z,75.34
2018-07-22T04:41:20.137Z,75.31
2018-07-22T04:42:20.189Z,75.79
2018-07-22T04:43:20.139Z,75.49
2018-07-22T04:44:20.147Z,75.31
2018-07-22T04:45:20.095Z,75.69
2018-07-22T04:46:20.084Z,75.69
2018-07-22T04:47:20.086Z,75.69
2018-07-22T04:48:20.086Z,75.31
2018-07-22T04:49:20.093Z,75.79
2018-07-22T04:50:20.063Z,75.98
2018-07-22T04:51:20.066Z,75.69
2018-07-22T04:52:20.048Z,75.88
2018-07-22T04:53:20.044Z,75.98
2018-07-22T04:54:20.065Z,76.07
2018-07-22T04:55:20.023Z,76.36
2018-07-22T04:56:20.008Z,76.17
2018-07-22T04:57:20.003Z,75.98
2018-07-22T04:58:20.020Z,76.26
2018-07-22T04:59:19.989Z,76.26
2018-07-22T05:00:20.000Z,75.69
2018-07-22T05:01:19.983Z,75.88
2018-07-22T05:02:19.964Z,75.40
2018-07-22T05:03:19.958Z,76.07
2018-07-22T05:04:20.025Z,76.07
2018-07-22T05:05:19.945Z,76.56
2018-07-22T05:06:19.942Z,76.46
2018-07-22T05:07:19.927Z,76.07
2018-07-22T05:08:19.936Z,76.56
2018-07-22T05:09:19.913Z,76.17
2018-07-22T05:10:19.904Z,76.65
2018-07-22T05:11:19.903Z,75.69
2018-07-22T05:12:19.886Z,76.56
2018-07-22T05:13:19.883Z,76.26
2018-07-22T05:14:19.869Z,77.23
2018-07-22T05:15:19.876Z,76.94
2018-07-22T05:16:19.909Z,77.04
2018-07-22T05:17:19.860Z,77.33
2018-07-22T05:18:19.840Z,77.51
2018-07-22T05:19:19.829Z,78.00
2018-07-22T05:20:19.830Z,77.23
2018-07-22T05:21:19.856Z,77.42
2018-07-22T05:22:19.821Z,77.61
2018-07-22T05:23:19.805Z,77.71
2018-07-22T05:24:19.801Z,77.81
2018-07-22T05:25:19.797Z,77.61
2018-07-22T05:26:19.819Z,78.09
2018-07-22T05:27:19.781Z,78.09
2018-07-22T05:28:19.812Z,78.06
2018-07-22T05:29:19.792Z,77.81
2018-07-22T05:30:19.762Z,78.28
2018-07-22T05:31:19.742Z,77.81
2018-07-22T05:32:19.742Z,77.61
2018-07-22T05:33:19.774Z,76.75
2018-07-22T05:34:19.732Z,76.94
2018-07-22T05:35:19.725Z,77.61
2018-07-22T05:36:19.704Z,77.51
2018-07-22T05:37:19.701Z,77.23
2018-07-22T05:38:19.725Z,76.65
2018-07-22T05:39:19.687Z,77.04
2018-07-22T05:40:19.670Z,77.51
2018-07-22T05:41:19.713Z,76.56
2018-07-22T05:42:19.672Z,76.94
2018-07-22T05:43:19.699Z,77.71
2018-07-22T05:44:19.651Z,78.09
2018-07-22T05:45:19.629Z,77.51
2018-07-22T05:46:19.616Z,77.04
2018-07-22T05:47:19.629Z,77.81
2018-07-22T05:48:19.614Z,77.90
2018-07-22T05:49:19.665Z,77.71
2018-07-22T05:50:19.598Z,77.81
2018-07-22T05:51:19.579Z,77.90
2018-07-22T05:52:19.590Z,77.81
2018-07-22T05:53:19.572Z,78.38
2018-07-22T05:54:19.572Z,78.96
2018-07-22T05:55:19.552Z,78.38
2018-07-22T05:56:19.552Z,78.77
2018-07-22T05:57:19.547Z,78.38
2018-07-22T05:58:19.544Z,78.48
2018-07-22T05:59:19.527Z,78.58
2018-07-22T06:00:19.561Z,78.77
2018-07-22T06:01:19.527Z,78.86
2018-07-22T06:02:19.499Z,79.05
2018-07-22T06:03:19.501Z,79.92
2018-07-22T06:04:19.484Z,79.15
2018-07-22T06:05:19.719Z,79.53
2018-07-22T06:06:19.475Z,79.92
2018-07-22T06:07:19.472Z,79.25
2018-07-22T06:08:19.463Z,79.60
2018-07-22T06:09:19.463Z,79.44
2018-07-22T06:10:19.480Z,79.69
2018-07-22T06:11:19.475Z,79.25
2018-07-22T06:12:19.425Z,80.30
2018-07-22T06:13:19.415Z,80.21
2018-07-22T06:14:19.416Z,80.11
2018-07-22T06:15:19.478Z,80.30
2018-07-22T06:16:19.411Z,79.98
2018-07-22T06:17:19.391Z,80.27
2018-07-22T06:18:19.368Z,80.17
2018-07-22T06:19:19.372Z,80.40
2018-07-22T06:20:19.369Z,80.30
2018-07-22T06:21:19.726Z,80.30
2018-07-22T06:22:19.348Z,80.50
2018-07-22T06:23:19.353Z,80.02
2018-07-22T06:24:19.336Z,80.30
2018-07-22T06:25:19.341Z,80.02
2018-07-22T06:26:19.329Z,80.11
2018-07-22T06:27:19.334Z,79.73
2018-07-22T06:28:19.296Z,80.21
2018-07-22T06:29:19.304Z,80.30
2018-07-22T06:30:19.289Z,80.21
2018-07-22T06:31:19.280Z,80.02
2018-07-22T06:32:19.322Z,79.92
2018-07-22T06:33:19.298Z,79.73
2018-07-22T06:34:19.259Z,80.50
2018-07-22T06:35:19.296Z,80.50
2018-07-22T06:36:19.238Z,79.82
2018-07-22T06:37:19.257Z,79.82
2018-07-22T06:38:19.260Z,80.30
2018-07-22T06:39:19.222Z,80.11
2018-07-22T06:40:19.210Z,80.30
2018-07-22T06:41:19.237Z,80.11
2018-07-22T06:42:19.196Z,80.50
2018-07-22T06:43:19.207Z,80.40
2018-07-22T06:44:19.210Z,80.02
2018-07-22T06:45:19.176Z,80.35
2018-07-22T06:46:19.184Z,80.25
2018-07-22T06:47:19.159Z,79.96
2018-07-22T06:48:19.157Z,79.77
2018-07-22T06:49:19.152Z,80.06
2018-07-22T06:50:19.151Z,80.25
2018-07-22T06:51:19.127Z,80.35
2018-07-22T06:52:19.122Z,79.67
2018-07-22T06:53:19.235Z,79.19
2018-07-22T06:54:19.131Z,79.67
2018-07-22T06:55:19.103Z,79.38
2018-07-22T06:56:19.114Z,79.48
2018-07-22T06:57:19.091Z,79.10
2018-07-22T06:58:19.097Z,78.90
2018-07-22T06:59:19.100Z,79.10
2018-07-22T07:00:19.143Z,79.38
2018-07-22T07:01:19.068Z,78.90
2018-07-22T07:02:19.052Z,78.90
2018-07-22T07:03:19.035Z,79.10
2018-07-22T07:04:19.069Z,79.19
2018-07-22T07:05:19.081Z,79.71
2018-07-22T07:06:19.022Z,78.90
2018-07-22T07:07:19.243Z,79.03
2018-07-22T07:08:19.005Z,78.90
2018-07-22T07:09:19.003Z,79.13
2018-07-22T07:10:18.984Z,78.94
2018-07-22T07:11:18.985Z,78.94
2018-07-22T07:12:18.996Z,78.36
2018-07-22T07:13:19.005Z,78.56
2018-07-22T07:14:18.958Z,78.46
2018-07-22T07:15:18.966Z,77.88
2018-07-22T07:16:19.273Z,78.56
2018-07-22T07:17:18.933Z,77.88
2018-07-22T07:18:18.931Z,77.88
2018-07-22T07:19:18.932Z,78.08
2018-07-22T07:20:18.920Z,78.27
2018-07-22T07:21:18.921Z,78.65
2018-07-22T07:22:18.933Z,77.98
2018-07-22T07:23:18.904Z,78.27
2018-07-22T07:24:18.886Z,77.92
2018-07-22T07:25:18.885Z,77.25
2018-07-22T07:26:18.904Z,76.96
2018-07-22T07:27:18.905Z,76.67
2018-07-22T07:28:18.976Z,76.73
2018-07-22T07:29:18.902Z,76.57
2018-07-22T07:30:18.859Z,76.67
2018-07-22T07:31:18.880Z,76.44
2018-07-22T07:32:18.843Z,76.57
2018-07-22T07:33:20.193Z,76.44
2018-07-22T07:34:19.106Z,76.76
2018-07-22T07:35:18.816Z,76.86
2018-07-22T07:36:18.813Z,76.25
2018-07-22T07:37:18.802Z,76.28
2018-07-22T07:38:18.802Z,76.09
2018-07-22T07:39:18.801Z,75.90
2018-07-22T07:40:18.792Z,75.42
2018-07-22T07:41:18.787Z,75.32
2018-07-22T07:42:18.838Z,76.28
2018-07-22T07:43:18.809Z,75.32
2018-07-22T07:44:18.752Z,75.90
2018-07-22T07:45:18.740Z,75.80
2018-07-22T07:46:18.747Z,75.80
2018-07-22T07:47:18.797Z,75.80
2018-07-22T07:48:18.730Z,75.32
2018-07-22T07:49:18.721Z,75.90
2018-07-22T07:50:18.716Z,75.23
2018-07-22T07:51:18.702Z,73.88
2018-07-22T07:52:18.705Z,73.78
2018-07-22T07:53:19.008Z,73.88
2018-07-22T07:54:18.745Z,74.45
2018-07-22T07:55:18.681Z,74.55
2018-07-22T07:56:18.717Z,74.74
2018-07-22T07:57:18.681Z,73.97
2018-07-22T07:58:18.655Z,73.97
2018-07-22T07:59:18.673Z,74.36
2018-07-22T08:00:18.643Z,74.01
2018-07-22T08:01:18.750Z,73.43
2018-07-22T08:02:19.453Z,74.30
2018-07-22T08:03:18.622Z,73.82
2018-07-22T08:04:18.679Z,73.43
2018-07-22T08:05:19.119Z,73.05
2018-07-22T08:06:18.601Z,73.05
2018-07-22T08:07:18.603Z,73.62
2018-07-22T08:08:18.586Z,74.20
2018-07-22T08:09:18.576Z,73.14
2018-07-22T08:10:18.619Z,73.05
2018-07-22T08:11:18.581Z,72.56
2018-07-22T08:12:18.593Z,71.98
2018-07-22T08:13:18.555Z,71.50
2018-07-22T08:14:18.546Z,72.18
2018-07-22T08:15:18.547Z,72.08
2018-07-22T08:16:18.537Z,72.27
2018-07-22T08:17:18.563Z,71.89
2018-07-22T08:18:18.620Z,71.41
2018-07-22T08:19:18.776Z,71.41
2018-07-22T08:20:18.664Z,70.96
2018-07-22T08:21:18.505Z,71.44
2018-07-22T08:22:18.610Z,70.54
2018-07-22T08:23:18.493Z,71.06
2018-07-22T08:24:18.519Z,71.44
2018-07-22T08:25:18.482Z,70.67
2018-07-22T08:26:18.481Z,71.83
2018-07-22T08:27:18.494Z,71.54
2018-07-22T08:28:18.463Z,71.15
2018-07-22T08:29:18.482Z,70.67
2018-07-22T08:30:18.448Z,70.57
2018-07-22T08:31:18.443Z,70.76
2018-07-22T08:32:18.442Z,70.86
2018-07-22T08:33:18.429Z,70.19
2018-07-22T08:34:18.448Z,70.13
2018-07-22T08:35:18.462Z,70.28
2018-07-22T08:36:18.418Z,69.93
2018-07-22T08:37:18.416Z,70.70
2018-07-22T08:38:18.405Z,70.61
2018-07-22T08:39:18.401Z,69.26
2018-07-22T08:40:18.392Z,68.68
2018-07-22T08:41:18.816Z,68.59
2018-07-22T08:42:18.375Z,69.58
2018-07-22T08:43:18.373Z,68.87
2018-07-22T08:44:18.369Z,68.81
2018-07-22T08:45:18.362Z,68.33
2018-07-22T08:46:18.356Z,68.13
2018-07-22T08:47:18.404Z,67.94
2018-07-22T08:48:18.344Z,68.23
2018-07-22T08:49:18.415Z,67.36
2018-07-22T08:50:18.335Z,67.46
2018-07-22T08:51:18.327Z,68.23
2018-07-22T08:52:18.368Z,67.36
2018-07-22T08:53:18.394Z,67.78
2018-07-22T08:54:18.314Z,66.91
2018-07-22T08:55:18.337Z,66.36
2018-07-22T08:56:18.301Z,65.05
2018-07-22T08:57:18.303Z,64.21
2018-07-22T08:58:18.318Z,63.46
2018-07-22T08:59:18.289Z,62.50
2018-07-22T09:00:18.286Z,61.66
2018-07-22T09:01:18.280Z,60.01
2018-07-22T09:02:18.269Z,60.59
2018-07-22T09:03:18.308Z,59.05
2018-07-22T09:04:18.274Z,60.11
2018-07-22T09:05:18.274Z,57.81
2018-07-22T09:06:18.266Z,56.16
2018-07-22T09:07:18.321Z,56.56
2018-07-22T09:08:18.320Z,57.19
2018-07-22T09:09:18.267Z,55.54
2018-07-22T09:10:18.258Z,53.22
2018-07-22T09:11:18.263Z,53.02
2018-07-22T09:12:18.265Z,52.95
2018-07-22T09:13:18.290Z,51.31
2018-07-22T09:14:18.265Z,51.53
2018-07-22T09:15:18.269Z,52.88
2018-07-22T09:16:18.267Z,51.35
2018-07-22T09:17:18.254Z,51.57
2018-07-22T09:18:18.298Z,51.60
2018-07-22T09:19:18.259Z,50.56
2018-07-22T09:20:18.267Z,47.34
2018-07-22T09:21:18.306Z,47.93
2018-07-22T09:22:18.260Z,45.89
2018-07-22T09:23:18.280Z,48.51
2018-07-22T09:24:18.270Z,47.74
2018-07-22T09:25:18.283Z,47.83
2018-07-22T09:26:18.315Z,47.83
2018-07-22T09:27:18.283Z,45.98
2018-07-22T09:28:18.277Z,47.34
2018-07-22T09:29:18.286Z,47.93
2018-07-22T09:30:18.278Z,48.51
2018-07-22T09:31:18.319Z,47.83
2018-07-22T09:32:18.298Z,47.25
2018-07-22T09:33:18.294Z,45.98
2018-07-22T09:34:18.293Z,45.11
2018-07-22T09:35:18.300Z,46.18
2018-07-22T09:36:18.399Z,47.25
2018-07-22T09:37:18.306Z,48.15
2018-07-22T09:38:18.678Z,47.56
2018-07-22T09:39:18.314Z,47.56
2018-07-22T09:40:18.303Z,44.86
2018-07-22T09:41:18.309Z,44.86
2018-07-22T09:42:18.310Z,43.19
2018-07-22T09:43:18.316Z,43.07
2018-07-22T09:44:18.339Z,45.31
2018-07-22T09:45:18.332Z,44.53
2018-07-22T09:46:18.332Z,46.08
2018-07-22T09:47:18.333Z,46.88
2018-07-22T09:48:18.375Z,47.59
2018-07-22T09:49:19.450Z,48.58
2018-07-22T09:50:18.706Z,46.17
2018-07-22T09:51:18.350Z,45.22
2018-07-22T09:52:18.353Z,45.22
2018-07-22T09:53:18.346Z,45.15
2018-07-22T09:54:18.365Z,45.78
2018-07-22T09:55:18.374Z,41.19
2018-07-22T09:56:18.396Z,39.53
2018-07-22T09:57:18.363Z,39.04
2018-07-22T09:58:18.387Z,39.02
2018-07-22T09:59:18.427Z,39.39
2018-07-22T10:00:18.385Z,40.19
2018-07-22T10:01:18.410Z,38.81
2018-07-22T10:02:18.387Z,38.81
2018-07-22T10:03:18.383Z,39.20
2018-07-22T10:04:18.414Z,39.02
2018-07-22T10:05:18.440Z,38.42
2018-07-22T10:06:18.434Z,38.79
2018-07-22T10:07:18.409Z,39.36
2018-07-22T10:08:18.416Z,40.73
2018-07-22T10:09:18.431Z,39.67
2018-07-22T10:10:18.434Z,39.57
2018-07-22T10:11:18.553Z,38.90
2018-07-22T10:12:18.430Z,40.19
2018-07-22T10:13:18.435Z,39.22
2018-07-22T10:14:18.460Z,37.65
2018-07-22T10:15:18.434Z,37.17
2018-07-22T10:16:18.459Z,36.86
2018-07-22T10:17:18.454Z,37.83
2018-07-22T10:18:18.456Z,38.32
2018-07-22T10:19:18.457Z,38.34
2018-07-22T10:20:18.472Z,36.98
2018-07-22T10:21:18.501Z,36.41
2018-07-22T10:22:18.486Z,36.13
2018-07-22T10:23:18.537Z,35.35
2018-07-22T10:24:18.493Z,35.74
2018-07-22T10:25:18.477Z,35.45
2018-07-22T10:26:18.540Z,35.75
2018-07-22T10:27:18.491Z,35.17
2018-07-22T10:28:18.567Z,35.68
2018-07-22T10:29:18.508Z,34.70
2018-07-22T10:30:18.519Z,34.50
2018-07-22T10:31:18.515Z,33.80
2018-07-22T10:32:18.510Z,34.99
2018-07-22T10:33:18.518Z,33.82
2018-07-22T10:34:18.533Z,33.92
2018-07-22T10:35:18.528Z,34.33
2018-07-22T10:36:18.541Z,32.35
2018-07-22T10:37:18.541Z,31.87
2018-07-22T10:38:18.549Z,32.55
2018-07-22T10:39:18.581Z,32.14
2018-07-22T10:40:18.595Z,31.46
2018-07-22T10:41:18.604Z,33.61
2018-07-22T10:42:18.568Z,33.61
2018-07-22T10:43:18.591Z,34.58
2018-07-22T10:44:18.575Z,35.77
2018-07-22T10:45:18.584Z,36.40
2018-07-22T10:46:18.586Z,32.78
2018-07-22T10:47:18.582Z,32.97
2018-07-22T10:48:18.603Z,31.98
2018-07-22T10:49:18.594Z,34.05
2018-07-22T10:50:18.635Z,35.03
2018-07-22T10:51:18.608Z,35.24
2018-07-22T10:52:18.619Z,33.87
2018-07-22T10:53:18.630Z,33.18
2018-07-22T10:54:18.622Z,33.46
2018-07-22T10:55:18.659Z,31.99
2018-07-22T10:56:18.623Z,33.46
2018-07-22T10:57:18.636Z,31.11
2018-07-22T10:58:18.651Z,32.87
2018-07-22T10:59:18.941Z,31.80
2018-07-22T11:00:18.672Z,30.72
2018-07-22T11:01:18.655Z,30.32
2018-07-22T11:02:18.700Z,30.59
2018-07-22T11:03:18.723Z,30.58
2018-07-22T11:04:18.755Z,32.03
2018-07-22T11:05:18.668Z,32.81
2018-07-22T11:06:18.706Z,32.79
2018-07-22T11:07:18.702Z,33.09
2018-07-22T11:08:18.681Z,33.97
2018-07-22T11:09:18.682Z,32.97
2018-07-22T11:10:18.687Z,32.86
2018-07-22T11:11:18.701Z,33.82
2018-07-22T11:12:18.723Z,34.58
2018-07-22T11:13:18.703Z,34.39
2018-07-22T11:14:18.751Z,35.36
2018-07-22T11:15:18.696Z,35.46
2018-07-22T11:16:18.707Z,34.97
2018-07-22T11:17:18.762Z,36.04
2018-07-22T11:18:18.713Z,36.33
2018-07-22T11:19:18.716Z,36.94
2018-07-22T11:20:18.717Z,36.16
2018-07-22T11:21:18.762Z,36.10
2018-07-22T11:22:18.720Z,36.99
2018-07-22T11:23:18.901Z,35.35
2018-07-22T11:24:18.736Z,35.07
2018-07-22T11:25:18.735Z,31.75
2018-07-22T11:26:18.734Z,31.56
2018-07-22T11:27:18.753Z,31.64
2018-07-22T11:28:18.737Z,33.01
2018-07-22T11:29:18.760Z,33.89
2018-07-22T11:30:18.926Z,34.68
2018-07-22T11:31:18.747Z,34.80
2018-07-22T11:32:18.756Z,34.03
2018-07-22T11:33:18.760Z,31.99
2018-07-22T11:34:18.773Z,32.97
2018-07-22T11:35:18.764Z,33.18
2018-07-22T11:36:18.777Z,31.81
2018-07-22T11:37:18.779Z,30.65
2018-07-22T11:38:18.776Z,31.63
2018-07-22T11:39:18.783Z,30.67
2018-07-22T11:40:18.796Z,30.67
2018-07-22T11:41:18.807Z,31.76
2018-07-22T11:42:18.806Z,29.59
2018-07-22T11:43:18.804Z,28.81
2018-07-22T11:44:18.808Z,28.89
2018-07-22T11:45:18.820Z,29.75
2018-07-22T11:46:18.857Z,31.13
2018-07-22T11:47:18.832Z,30.44
2018-07-22T11:48:18.862Z,29.64
2018-07-22T11:49:18.828Z,31.01
2018-07-22T11:50:18.893Z,30.52
2018-07-22T11:51:18.856Z,29.71
2018-07-22T11:52:18.851Z,31.08
2018-07-22T11:53:18.888Z,30.19
2018-07-22T11:54:18.862Z,30.37
2018-07-22T11:55:18.868Z,29.49
2018-07-22T11:56:18.864Z,30.35
2018-07-22T11:57:18.905Z,30.34
2018-07-22T11:58:18.871Z,31.59
2018-07-22T11:59:19.069Z,32.08
2018-07-22T12:00:18.880Z,33.54
2018-07-22T12:01:18.934Z,33.44
2018-07-22T12:02:18.885Z,32.87
2018-07-22T12:03:18.887Z,31.88
2018-07-22T12:04:18.888Z,32.84
2018-07-22T12:05:18.936Z,34.59
2018-07-22T12:06:18.895Z,32.94
2018-07-22T12:07:18.936Z,33.43
2018-07-22T12:08:18.900Z,33.04
2018-07-22T12:09:19.057Z,33.70
2018-07-22T12:10:18.979Z,33.20
2018-07-22T12:11:18.896Z,33.49
2018-07-22T12:12:18.956Z,33.78
2018-07-22T12:13:18.935Z,34.66
2018-07-22T12:14:18.919Z,34.95
2018-07-22T12:15:18.908Z,34.56
2018-07-22T12:16:18.914Z,34.66
2018-07-22T12:17:18.904Z,35.44
2018-07-22T12:18:18.961Z,35.44
2018-07-22T12:19:18.905Z,34.95
2018-07-22T12:20:18.902Z,35.13
2018-07-22T12:21:18.914Z,35.13
2018-07-22T12:22:18.901Z,35.81
2018-07-22T12:23:18.903Z,36.40
2018-07-22T12:24:18.909Z,36.18
2018-07-22T12:25:18.973Z,36.47
2018-07-22T12:26:18.903Z,36.47
2018-07-22T12:27:18.900Z,37.06
2018-07-22T12:28:18.902Z,37.26
2018-07-22T12:29:18.904Z,37.26
2018-07-22T12:30:18.911Z,36.96
2018-07-22T12:31:18.907Z,36.77
2018-07-22T12:32:18.899Z,36.87
2018-07-22T12:33:18.905Z,38.40
2018-07-22T12:34:19.047Z,38.21
2018-07-22T12:35:18.897Z,38.60
2018-07-22T12:36:18.949Z,38.50
2018-07-22T12:37:18.896Z,38.70
2018-07-22T12:38:18.893Z,39.18
2018-07-22T12:39:18.898Z,38.60
2018-07-22T12:40:18.913Z,38.96
2018-07-22T12:41:18.892Z,39.28
2018-07-22T12:42:18.912Z,39.45
2018-07-22T12:43:18.888Z,39.84
2018-07-22T12:44:18.884Z,40.03
2018-07-22T12:45:18.933Z,39.94
2018-07-22T12:46:18.941Z,40.11
2018-07-22T12:47:18.872Z,40.52
2018-07-22T12:48:18.892Z,40.52
2018-07-22T12:49:18.879Z,40.81
2018-07-22T12:50:18.886Z,40.99
2018-07-22T12:51:18.875Z,41.10
2018-07-22T12:52:18.947Z,40.81